Time;durP1;ratioP1;P1;durP2;ratioP2;P2;SDS_P1;SDS_P2;PMS_P1;PMS_P2;Temp;Humidity;BMP_temperature;BMP_pressure;BME280_temperature;BME280_humidity;BME280_pressure;Samples;Min_cycle;Max_cycle;Signal;HPM_P1;HPM_P2
2023/06/12 00:02:20;;;;;;;7.90;7.25;;;;;;;17.88;56.00;100526.53;6034983;23;20014;-70
2023/06/12 00:04:46;;;;;;;8.20;7.50;;;;;;;18.28;56.05;100602.78;6031100;23;20019;-70
2023/06/12 00:07:16;;;;;;;8.23;7.63;;;;;;;17.91;55.70;100544.88;6029516;23;20022;-70
2023/06/12 00:09:42;;;;;;;8.25;7.25;;;;;;;18.31;56.61;100629.94;6029870;23;20102;-69
2023/06/12 00:12:10;;;;;;;8.23;7.63;;;;;;;17.98;57.75;100619.53;6040060;23;20022;-70
2023/06/12 00:14:37;;;;;;;7.53;6.93;;;;;;;18.26;57.58;100653.41;6061725;23;20132;-70
2023/06/12 00:17:03;;;;;;;8.05;7.38;;;;;;;17.78;57.91;100576.03;6031309;23;20017;-70
2023/06/12 00:19:30;;;;;;;7.68;6.97;;;;;;;17.98;58.09;100627.50;6030492;23;20037;-69
2023/06/12 00:21:57;;;;;;;7.75;7.15;;;;;;;17.06;58.34;100476.81;6052302;23;20537;-69
2023/06/12 00:24:23;;;;;;;7.82;7.32;;;;;;;17.99;58.05;100642.47;6031932;23;20615;-70
2023/06/12 00:26:50;;;;;;;8.73;7.97;;;;;;;17.96;58.58;100669.25;6029937;23;20026;-69
2023/06/12 00:29:17;;;;;;;7.28;6.78;;;;;;;17.89;58.52;100658.31;6036728;23;20031;-69
2023/06/12 00:31:44;;;;;;;7.55;7.03;;;;;;;17.84;59.48;100671.13;6044674;23;20609;-70
2023/06/12 00:34:11;;;;;;;7.90;7.22;;;;;;;17.52;59.40;100627.69;6027798;23;20030;-70
2023/06/12 00:36:37;;;;;;;7.50;7.00;;;;;;;17.64;59.78;100646.22;6059379;23;20018;-70
2023/06/12 00:39:03;;;;;;;8.85;7.70;;;;;;;17.27;59.25;100578.47;6030076;23;20101;-69
2023/06/12 00:41:30;;;;;;;8.55;7.72;;;;;;;17.66;59.01;100646.91;6059120;23;20052;-70
2023/06/12 00:43:56;;;;;;;7.43;6.93;;;;;;;17.59;58.87;100648.41;6030172;23;20041;-69
2023/06/12 00:46:23;;;;;;;7.45;6.97;;;;;;;17.53;59.05;100655.06;6054017;23;20694;-69
2023/06/12 00:48:50;;;;;;;7.82;7.05;;;;;;;17.47;59.30;100653.75;6027102;23;20030;-70
2023/06/12 00:51:18;;;;;;;7.15;6.75;;;;;;;16.96;59.62;100585.44;6032510;23;20037;-70
2023/06/12 00:53:44;;;;;;;7.32;6.80;;;;;;;17.40;59.75;100641.97;6028669;23;20038;-69
2023/06/12 00:56:13;;;;;;;7.75;7.15;;;;;;;17.36;59.44;100651.16;6017543;23;20046;-69
2023/06/12 00:58:39;;;;;;;7.50;6.90;;;;;;;17.32;59.38;100655.84;6056398;23;20727;-70
2023/06/12 01:01:08;;;;;;;7.82;7.22;;;;;;;17.27;59.85;100654.53;6028456;23;20011;-69
2023/06/12 01:03:35;;;;;;;6.88;6.28;;;;;;;16.95;59.85;100615.56;6028805;23;20666;-70
2023/06/12 01:06:09;;;;;;;7.85;7.22;;;;;;;17.17;59.77;100645.66;6035850;23;20718;-70
2023/06/12 01:08:42;;;;;;;8.02;7.32;;;;;;;16.29;59.87;100520.94;6055857;23;20022;-70
2023/06/12 01:11:11;;;;;;;7.68;7.07;;;;;;;16.84;59.78;100600.53;6027437;23;20026;-69
2023/06/12 01:13:38;;;;;;;7.75;7.20;;;;;;;16.69;60.34;100607.84;6029487;23;20034;-69
2023/06/12 01:16:05;;;;;;;7.60;7.03;;;;;;;16.59;60.32;100579.56;6058126;23;20030;-70
2023/06/12 01:18:32;;;;;;;9.65;7.32;;;;;;;16.47;60.78;100584.00;6028907;23;20061;-70
2023/06/12 01:21:05;;;;;;;7.18;6.68;;;;;;;16.43;61.49;100588.72;6053439;23;20026;-70
2023/06/12 01:23:44;;;;;;;7.05;6.55;;;;;;;16.53;61.37;100623.25;6030308;23;20015;-70
2023/06/12 01:26:45;;;;;;;8.00;7.20;;;;;;;16.62;61.78;100624.34;6056645;23;20014;-70
2023/06/12 01:29:49;;;;;;;7.22;6.68;;;;;;;15.67;61.38;100473.72;6029056;23;20639;-71
2023/06/12 01:32:16;;;;;;;7.15;6.65;;;;;;;16.31;62.20;100587.84;6027990;23;20099;-71
2023/06/12 01:34:56;;;;;;;6.90;6.45;;;;;;;16.21;62.54;100588.69;6059926;23;20030;-71
2023/06/12 01:37:38;;;;;;;7.38;6.82;;;;;;;16.53;63.25;100644.47;6028312;23;20027;-70
2023/06/12 01:40:07;;;;;;;7.90;7.25;;;;;;;16.42;62.88;100634.72;6027341;23;20109;-70
2023/06/12 01:42:33;;;;;;;7.68;7.05;;;;;;;16.40;63.96;100641.94;6027321;23;20095;-70
2023/06/12 01:45:00;;;;;;;7.35;6.85;;;;;;;16.38;64.11;100643.00;6057446;23;20049;-71
2023/06/12 01:47:26;;;;;;;7.32;6.72;;;;;;;16.00;64.14;100591.22;6027813;23;20101;-71
2023/06/12 01:49:53;;;;;;;7.78;7.07;;;;;;;16.25;64.51;100632.50;6028753;23;20030;-70
2023/06/12 01:52:19;;;;;;;7.90;7.30;;;;;;;16.25;64.06;100635.16;6024066;23;20078;-71
2023/06/12 01:54:49;;;;;;;7.10;6.43;;;;;;;16.26;63.88;100628.94;6057118;23;20027;-71
2023/06/12 01:57:21;;;;;;;7.03;6.40;;;;;;;16.21;63.82;100625.78;6020949;23;20044;-71
2023/06/12 01:59:48;;;;;;;;;;;;;;;16.09;64.00;100646.09;6060531;23;20093;-71
2023/06/12 02:02:16;;;;;;;7.75;7.15;;;;;;;16.01;65.20;100654.59;6027360;23;19914;-71
2023/06/12 02:04:43;;;;;;;7.57;7.00;;;;;;;15.95;66.30;100660.38;6051288;23;20026;-71
2023/06/12 02:07:10;;;;;;;7.80;7.10;;;;;;;15.82;66.74;100659.63;6028750;23;20029;-71
2023/06/12 02:09:36;;;;;;;7.65;6.97;;;;;;;15.68;67.29;100650.88;6029961;23;20102;-71
2023/06/12 02:12:03;;;;;;;8.05;7.45;;;;;;;15.45;68.27;100626.09;6056362;23;20434;-71
2023/06/12 02:14:30;;;;;;;7.63;7.03;;;;;;;15.62;68.39;100655.78;6031486;23;20043;-71
2023/06/12 02:16:57;;;;;;;7.50;6.93;;;;;;;15.59;68.37;100658.63;6024688;23;20029;-70
2023/06/12 02:19:25;;;;;;;7.80;7.20;;;;;;;15.56;68.38;100657.91;6032245;23;20014;-71
2023/06/12 02:21:53;;;;;;;7.50;6.90;;;;;;;15.55;68.10;100656.22;6058931;23;20340;-71
2023/06/12 02:24:22;;;;;;;7.40;6.90;;;;;;;15.19;68.02;100606.88;6028436;23;20010;-71
2023/06/12 02:26:49;;;;;;;7.72;7.13;;;;;;;15.54;68.36;100664.28;6029411;23;20029;-70
2023/06/12 02:29:15;;;;;;;6.90;6.40;;;;;;;15.37;68.42;100633.75;6055037;23;20132;-71
2023/06/12 02:31:42;;;;;;;7.28;6.68;;;;;;;15.54;67.37;100662.47;6027447;23;20109;-71
2023/06/12 02:34:08;;;;;;;8.35;7.65;;;;;;;15.52;67.39;100658.25;6054074;23;20030;-70
2023/06/12 02:36:40;;;;;;;6.95;6.35;;;;;;;15.47;67.25;100660.38;6027535;23;20015;-71
2023/06/12 02:39:08;;;;;;;7.22;6.72;;;;;;;15.44;68.08;100657.97;6002504;23;20066;-71
2023/06/12 02:41:38;;;;;;;7.00;6.57;;;;;;;14.91;67.77;100587.75;6000448;23;20029;-71
2023/06/12 02:44:04;;;;;;;7.40;6.90;;;;;;;15.20;68.00;100642.09;6057074;23;20038;-71
2023/06/12 02:46:31;;;;;;;7.10;6.60;;;;;;;15.35;68.24;100672.69;6027920;23;20035;-70
2023/06/12 02:48:57;;;;;;;7.45;6.78;;;;;;;15.35;68.70;100667.41;6028984;23;20195;-71
2023/06/12 02:51:24;;;;;;;7.32;6.70;;;;;;;15.10;68.07;100632.19;6021980;23;20054;-71
2023/06/12 02:53:53;;;;;;;7.50;6.88;;;;;;;14.86;67.87;100591.69;6032095;23;20619;-71
2023/06/12 02:56:20;;;;;;;7.38;6.72;;;;;;;15.10;68.02;100634.81;6025052;23;20695;-70
2023/06/12 02:58:46;;;;;;;7.75;6.65;;;;;;;14.80;68.28;100603.53;6019910;23;20015;-71
2023/06/12 03:01:16;;;;;;;7.40;6.70;;;;;;;15.24;69.18;100689.34;6028672;23;20034;-71
2023/06/12 03:03:44;;;;;;;7.75;7.15;;;;;;;15.23;69.64;100695.56;6056155;23;20027;-71
2023/06/12 03:06:11;;;;;;;8.38;6.85;;;;;;;14.85;68.92;100634.88;6026202;23;20095;-71
2023/06/12 03:08:37;;;;;;;9.90;6.78;;;;;;;15.20;68.51;100681.75;6026755;23;20050;-71
2023/06/12 03:11:04;;;;;;;7.90;7.20;;;;;;;14.74;68.66;100609.25;6055072;23;20046;-71
2023/06/12 03:13:31;;;;;;;7.40;6.80;;;;;;;14.86;68.47;100632.16;6028463;23;20034;-71
2023/06/12 03:15:58;;;;;;;7.25;6.65;;;;;;;15.14;69.01;100683.88;6056313;23;20089;-71
2023/06/12 03:18:25;;;;;;;7.45;6.75;;;;;;;14.71;69.22;100622.66;6029827;23;20045;-71
2023/06/12 03:20:52;;;;;;;8.38;7.25;;;;;;;14.88;69.66;100661.94;6029792;23;20760;-71
2023/06/12 03:23:18;;;;;;;8.88;7.00;;;;;;;15.09;70.05;100696.56;6033648;23;20029;-70
2023/06/12 03:25:47;;;;;;;7.93;7.18;;;;;;;15.08;70.16;100707.25;6057362;23;20018;-71
2023/06/12 03:28:13;;;;;;;8.25;7.32;;;;;;;15.11;69.96;100697.31;6028796;23;20029;-68
2023/06/12 03:30:40;;;;;;;6.88;6.28;;;;;;;15.09;69.85;100701.00;6032788;23;20576;-69
2023/06/12 03:33:06;;;;;;;8.02;7.38;;;;;;;15.08;71.01;100709.91;6037042;23;20042;-68
2023/06/12 03:35:33;;;;;;;7.15;6.55;;;;;;;15.08;71.39;100721.31;6038022;23;20026;-68
2023/06/12 03:37:59;;;;;;;7.03;6.47;;;;;;;15.13;71.78;100729.78;6027564;23;20022;-68
2023/06/12 03:40:26;;;;;;;8.20;7.40;;;;;;;15.18;70.97;100723.31;6030050;23;20422;-68
2023/06/12 03:42:52;;;;;;;7.32;6.72;;;;;;;14.95;70.83;100686.13;6042464;23;20023;-68
2023/06/12 03:45:19;;;;;;;7.55;6.95;;;;;;;15.28;70.50;100711.13;6028456;23;20806;-69
2023/06/12 03:47:45;;;;;;;7.47;6.88;;;;;;;15.32;69.95;100724.00;6030060;23;20047;-68
2023/06/12 03:50:11;;;;;;;7.20;6.70;;;;;;;15.35;70.38;100713.22;6058947;23;20030;-68
2023/06/12 03:52:39;;;;;;;7.82;7.05;;;;;;;14.99;70.12;100653.25;6029256;23;20505;-68
2023/06/12 03:55:05;;;;;;;12.43;6.97;;;;;;;15.46;69.29;100715.09;6058535;23;20046;-68
2023/06/12 03:57:32;;;;;;;7.28;6.68;;;;;;;15.49;69.54;100722.78;6031086;23;20545;-68
2023/06/12 04:00:00;;;;;;;7.43;6.88;;;;;;;15.54;71.37;100739.19;6055736;23;20648;-68
2023/06/12 04:02:27;;;;;;;7.80;7.10;;;;;;;15.58;71.09;100749.53;6029757;23;20029;-68
2023/06/12 04:04:56;;;;;;;7.45;6.82;;;;;;;15.19;71.02;100680.06;6057425;23;20410;-68
2023/06/12 04:07:22;;;;;;;8.75;7.13;;;;;;;15.67;71.20;100768.22;6027715;23;20025;-68
2023/06/12 04:09:49;;;;;;;8.05;7.35;;;;;;;16.14;71.28;100779.81;6056133;23;20030;-69
2023/06/12 04:12:15;;;;;;;7.72;7.13;;;;;;;17.01;69.51;100805.94;6029618;23;20089;-68
2023/06/12 04:14:42;;;;;;;7.90;7.28;;;;;;;17.81;66.28;100794.31;6061096;23;20021;-68
2023/06/12 04:17:08;;;;;;;8.13;7.45;;;;;;;18.45;62.78;100752.81;6029324;23;20543;-68
2023/06/12 04:19:36;;;;;;;7.53;6.82;;;;;;;19.01;60.73;100736.47;6060712;23;20029;-68
2023/06/12 04:22:03;;;;;;;7.43;6.93;;;;;;;18.91;58.87;100600.81;6035283;23;20015;-68
2023/06/12 04:24:30;;;;;;;7.78;7.18;;;;;;;20.15;57.08;100699.69;6033499;23;20018;-68
2023/06/12 04:27:01;;;;;;;7.97;7.30;;;;;;;20.44;55.52;100645.47;6057360;23;20042;-68
2023/06/12 04:29:28;;;;;;;8.32;7.53;;;;;;;21.28;54.21;100697.91;6030160;23;20105;-69
2023/06/12 04:31:55;;;;;;;7.97;7.28;;;;;;;21.81;52.57;100662.41;6059067;23;20049;-69
2023/06/12 04:34:21;;;;;;;7.55;6.97;;;;;;;22.13;52.33;100661.00;6032500;23;20019;-68
2023/06/12 04:36:52;;;;;;;7.60;7.07;;;;;;;22.53;51.03;100664.09;6029189;23;20027;-70
2023/06/12 04:39:19;;;;;;;7.40;6.90;;;;;;;22.95;50.68;100671.31;6057034;23;20089;-70
2023/06/12 04:41:47;;;;;;;8.15;7.55;;;;;;;23.43;50.30;100661.78;6028063;23;20022;-68
2023/06/12 04:44:14;;;;;;;7.47;6.97;;;;;;;23.75;48.71;100641.38;6031118;23;20036;-68
2023/06/12 04:46:40;;;;;;;7.72;7.22;;;;;;;23.94;47.20;100605.41;6030092;23;20495;-68
2023/06/12 04:49:06;;;;;;;7.40;6.93;;;;;;;24.56;46.37;100615.50;6040811;23;20055;-68
2023/06/12 04:51:33;;;;;;;7.63;7.13;;;;;;;24.62;45.60;100606.75;6053671;23;20010;-68
2023/06/12 04:54:01;;;;;;;8.07;7.47;;;;;;;24.74;45.19;100616.09;6027692;23;20030;-68
2023/06/12 04:56:31;;;;;;;7.90;7.15;;;;;;;24.86;44.94;100616.53;6055551;23;20035;-68
2023/06/12 04:58:58;;;;;;;7.70;7.10;;;;;;;25.17;45.36;100639.84;6028165;23;20399;-68
2023/06/12 05:01:25;;;;;;;7.60;7.10;;;;;;;24.46;45.36;100562.00;6025554;23;20575;-68
2023/06/12 05:03:52;;;;;;;8.18;7.47;;;;;;;24.65;45.47;100660.88;6058266;23;20018;-69
2023/06/12 05:06:20;;;;;;;7.65;7.05;;;;;;;25.06;45.86;100690.25;6028504;23;20784;-68
2023/06/12 05:08:46;;;;;;;7.35;6.90;;;;;;;25.41;44.96;100719.47;6058311;23;20359;-68
2023/06/12 05:11:13;;;;;;;7.18;6.70;;;;;;;25.76;45.47;100733.38;6027345;23;20038;-69
2023/06/12 05:13:39;;;;;;;7.57;7.07;;;;;;;26.24;44.07;100748.34;6059694;23;20731;-68
2023/06/12 05:16:06;;;;;;;7.82;7.32;;;;;;;26.56;43.24;100713.19;6010451;23;20490;-70
2023/06/12 05:18:32;;;;;;;8.23;7.53;;;;;;;26.57;42.21;100664.56;6057102;23;20037;-70
2023/06/12 05:20:59;;;;;;;7.80;7.22;;;;;;;26.80;41.90;100677.13;6028764;23;20087;-71
2023/06/12 05:23:25;;;;;;;8.50;7.70;;;;;;;27.12;41.07;100659.69;6028968;23;20058;-70
2023/06/12 05:25:52;;;;;;;7.78;7.18;;;;;;;27.29;40.15;100649.56;6026618;23;20018;-70
2023/06/12 05:28:18;;;;;;;8.48;7.78;;;;;;;26.77;39.44;100550.97;6025174;23;20070;-69
2023/06/12 05:30:47;;;;;;;7.60;7.10;;;;;;;27.10;39.81;100625.88;6052506;23;20026;-69
2023/06/12 05:33:13;;;;;;;8.75;7.88;;;;;;;27.09;39.79;100618.84;6027034;23;20080;-69
2023/06/12 05:35:40;;;;;;;7.53;6.95;;;;;;;27.48;40.00;100702.00;6057387;23;20030;-69
2023/06/12 05:38:07;;;;;;;7.70;7.20;;;;;;;27.81;38.98;100691.53;6003524;23;20417;-69
2023/06/12 05:40:34;;;;;;;8.60;7.88;;;;;;;27.78;38.49;100618.28;6026703;23;20353;-69
2023/06/12 05:43:00;;;;;;;7.70;7.00;;;;;;;27.78;39.03;100664.13;6027293;23;20050;-68
2023/06/12 05:45:26;;;;;;;7.95;7.35;;;;;;;27.25;38.71;100610.56;6056027;23;20438;-70
2023/06/12 05:47:53;;;;;;;7.53;6.93;;;;;;;28.28;38.52;100728.91;6027342;23;20027;-69
2023/06/12 05:50:19;;;;;;;8.00;7.40;;;;;;;28.12;38.35;100670.66;6054718;23;20042;-69
2023/06/12 05:52:46;;;;;;;7.80;6.95;;;;;;;28.35;38.42;100700.94;6028116;23;20007;-69
2023/06/12 05:55:12;;;;;;;7.93;7.32;;;;;;;27.96;39.04;100688.78;6053781;23;20026;-70
2023/06/12 05:57:39;;;;;;;7.72;7.13;;;;;;;28.00;39.66;100748.59;6027868;23;20042;-70
2023/06/12 06:00:06;;;;;;;8.73;8.10;;;;;;;28.20;39.34;100755.00;6022657;23;20110;-69
2023/06/12 06:02:33;;;;;;;8.00;7.47;;;;;;;27.51;40.52;100708.88;6053023;23;20600;-70
2023/06/12 06:04:59;;;;;;;17.73;16.63;;;;;;;28.19;39.58;100764.13;5980717;23;20367;-69
2023/06/12 06:07:26;;;;;;;7.95;7.35;;;;;;;27.94;39.92;100711.59;5989318;23;20418;-69
2023/06/12 06:09:52;;;;;;;7.70;7.10;;;;;;;27.72;40.83;100792.47;6026414;23;20026;-70
2023/06/12 06:12:19;;;;;;;7.80;7.10;;;;;;;27.50;40.58;100699.94;6055384;23;20026;-70
2023/06/12 06:14:45;;;;;;;7.18;6.78;;;;;;;28.15;39.43;100756.63;6029547;23;20362;-71
2023/06/12 06:17:14;;;;;;;8.00;7.50;;;;;;;28.53;39.24;100778.75;6026051;23;20031;-70
2023/06/12 06:19:40;;;;;;;7.68;7.13;;;;;;;28.27;39.38;100733.47;6025679;23;20050;-70
2023/06/12 06:22:07;;;;;;;8.85;7.95;;;;;;;28.47;38.40;100706.63;6055018;23;20431;-69
2023/06/12 06:24:33;;;;;;;7.57;7.07;;;;;;;28.41;38.95;100715.50;6029045;23;20080;-70
2023/06/12 06:27:00;;;;;;;7.88;7.28;;;;;;;27.15;39.12;100591.16;6050963;23;20616;-70
2023/06/12 06:29:28;;;;;;;7.63;7.13;;;;;;;27.25;39.56;100630.25;6028827;23;20031;-70
2023/06/12 06:31:55;;;;;;;8.20;7.60;;;;;;;26.88;39.08;100563.06;6050608;23;20028;-70
2023/06/12 06:34:21;;;;;;;7.57;6.97;;;;;;;26.34;39.37;100526.59;6028099;23;20042;-70
2023/06/12 06:36:48;;;;;;;7.50;6.90;;;;;;;25.50;40.69;100500.78;6056006;23;20041;-70
2023/06/12 06:39:14;;;;;;;8.15;7.35;;;;;;;25.14;40.87;100484.44;6028443;23;20030;-69
2023/06/12 06:41:41;;;;;;;8.18;7.57;;;;;;;25.20;40.81;100514.09;6026502;23;20038;-70
2023/06/12 06:44:07;;;;;;;8.90;8.20;;;;;;;25.35;41.06;100578.63;6058411;23;20031;-69
2023/06/12 06:46:33;;;;;;;8.02;7.43;;;;;;;25.16;41.92;100576.38;6026693;23;20029;-69
2023/06/12 06:49:00;;;;;;;7.78;7.18;;;;;;;25.17;42.52;100627.25;6053769;23;20030;-70
2023/06/12 06:51:29;;;;;;;8.55;7.55;;;;;;;25.22;41.89;100621.41;6025504;23;20045;-69
2023/06/12 06:53:57;;;;;;;7.65;7.05;;;;;;;25.03;42.29;100588.56;6054588;23;20101;-69
2023/06/12 06:56:23;;;;;;;8.30;7.60;;;;;;;25.09;42.59;100652.28;6026363;23;20015;-69
2023/06/12 06:58:50;;;;;;;8.07;7.28;;;;;;;25.29;42.64;100651.88;6053896;23;20036;-70
2023/06/12 07:01:17;;;;;;;9.18;8.45;;;;;;;25.28;40.95;100569.66;6024247;23;20026;-69
2023/06/12 07:03:45;;;;;;;8.80;7.70;;;;;;;25.13;42.57;100639.34;6052493;23;20091;-69
2023/06/12 07:06:14;;;;;;;8.02;7.43;;;;;;;25.27;41.70;100625.19;6030095;23;20053;-70
2023/06/12 07:08:41;;;;;;;8.40;7.80;;;;;;;25.21;41.05;100549.84;6058712;23;20018;-67
2023/06/12 07:11:07;;;;;;;8.25;7.50;;;;;;;25.25;41.87;100621.03;6026439;23;20033;-68
2023/06/12 07:13:33;;;;;;;7.70;7.20;;;;;;;25.17;41.47;100570.03;6026613;23;20034;-68
2023/06/12 07:16:00;;;;;;;7.93;7.43;;;;;;;24.23;41.38;100468.88;6031092;23;20612;-67
2023/06/12 07:18:27;;;;;;;7.85;7.25;;;;;;;25.17;40.77;100543.16;6033998;23;20033;-67
2023/06/12 07:20:54;;;;;;;7.93;7.32;;;;;;;25.21;40.89;100539.09;6026108;23;20021;-67
2023/06/12 07:23:20;;;;;;;7.45;6.95;;;;;;;25.28;40.42;100548.16;6027826;23;20101;-67
2023/06/12 07:25:47;;;;;;;8.48;7.78;;;;;;;25.07;41.59;100543.41;6026985;23;20084;-69
2023/06/12 07:28:13;;;;;;;7.53;7.03;;;;;;;25.15;42.27;100636.50;6053253;23;20093;-69
2023/06/12 07:30:40;;;;;;;8.38;7.68;;;;;;;25.22;40.80;100568.50;6028753;23;20031;-69
2023/06/12 07:33:06;;;;;;;8.07;7.38;;;;;;;25.16;40.16;100520.00;6049095;23;20017;-70
2023/06/12 07:35:33;;;;;;;8.20;7.40;;;;;;;25.01;40.80;100528.81;6027799;23;20034;-69
2023/06/12 07:37:59;;;;;;;7.75;7.15;;;;;;;25.26;40.79;100561.75;6056572;23;20023;-69
2023/06/12 07:40:25;;;;;;;8.60;7.88;;;;;;;25.44;40.36;100591.00;6027250;23;20015;-70
2023/06/12 07:42:52;;;;;;;8.25;7.55;;;;;;;24.56;39.83;100423.13;6025623;23;20027;-69
2023/06/12 07:45:18;;;;;;;7.53;6.95;;;;;;;25.77;40.62;100636.41;6054054;23;20595;-69
2023/06/12 07:47:47;;;;;;;8.95;7.38;;;;;;;25.58;39.80;100524.88;6025539;23;20035;-70
2023/06/12 07:50:13;;;;;;;8.25;7.70;;;;;;;25.45;40.28;100573.84;6055334;23;20098;-67
2023/06/12 07:52:40;;;;;;;7.88;7.15;;;;;;;25.56;41.51;100653.22;6026770;23;20030;-68
2023/06/12 07:55:07;;;;;;;8.38;7.68;;;;;;;25.90;40.49;100630.47;6026712;23;20026;-67
2023/06/12 07:57:34;;;;;;;7.70;7.10;;;;;;;25.89;39.42;100583.03;6053053;23;20022;-67
2023/06/12 08:00:05;;;;;;;8.20;7.53;;;;;;;25.93;39.97;100605.06;6024397;23;20034;-67
2023/06/12 08:02:33;;;;;;;7.40;6.90;;;;;;;25.19;38.87;100406.84;6017716;23;20022;-67
2023/06/12 08:05:00;;;;;;;7.70;6.93;;;;;;;25.76;39.03;100508.41;6030464;23;20031;-67
2023/06/12 08:07:27;;;;;;;8.80;7.15;;;;;;;25.89;39.07;100529.28;6055687;23;20014;-67
2023/06/12 08:09:54;;;;;;;6.95;6.45;;;;;;;25.99;38.82;100550.53;6030595;23;20021;-67
2023/06/12 08:12:21;;;;;;;9.50;7.68;;;;;;;26.02;39.32;100572.53;6031601;23;20649;-67
2023/06/12 08:14:48;;;;;;;8.45;7.53;;;;;;;26.27;39.87;100644.88;6063708;23;20026;-68
2023/06/12 08:17:15;;;;;;;7.57;7.07;;;;;;;26.35;38.84;100576.69;6027986;23;20050;-67
2023/06/12 08:19:42;;;;;;;7.80;7.20;;;;;;;26.42;38.83;100567.69;6059098;23;20057;-67
2023/06/12 08:22:08;;;;;;;8.02;7.50;;;;;;;24.63;38.81;100297.13;6027222;23;20141;-67
2023/06/12 08:24:36;;;;;;;7.88;7.25;;;;;;;26.65;38.18;100589.13;6059224;23;20150;-67
2023/06/12 08:27:03;;;;;;;7.53;6.95;;;;;;;26.29;38.47;100521.78;6003917;23;20351;-68
2023/06/12 08:29:30;;;;;;;7.78;7.18;;;;;;;26.36;38.33;100546.94;6057445;23;20710;-67
2023/06/12 08:31:56;;;;;;;7.63;7.13;;;;;;;26.40;38.46;100566.19;6030105;23;20434;-67
2023/06/12 08:34:24;;;;;;;7.80;7.10;;;;;;;26.37;39.24;100626.59;6057515;23;20018;-68
2023/06/12 08:36:52;;;;;;;7.90;7.30;;;;;;;26.65;38.87;100626.81;6029469;23;20029;-68
2023/06/12 08:39:19;;;;;;;8.20;7.50;;;;;;;26.60;38.67;100594.25;6058227;23;20006;-67
2023/06/12 08:42:05;;;;;;;8.00;7.40;;;;;;;26.83;38.83;100649.81;6030756;23;20019;-68
2023/06/12 08:44:33;;;;;;;7.75;7.15;;;;;;;26.52;38.80;100585.41;6054810;23;20093;-69
2023/06/12 08:47:03;;;;;;;7.93;7.30;;;;;;;26.96;38.35;100630.28;6028909;23;20023;-69
2023/06/12 08:49:31;;;;;;;9.80;7.03;;;;;;;27.23;37.66;100626.91;6029387;23;20090;-69
2023/06/12 08:51:58;;;;;;;7.90;7.30;;;;;;;27.16;37.69;100603.56;6026988;23;20097;-67
2023/06/12 08:54:24;;;;;;;7.68;7.00;;;;;;;27.44;38.13;100682.69;6058220;23;20018;-68
2023/06/12 08:56:54;;;;;;;7.72;7.13;;;;;;;27.83;37.64;100704.84;6028700;23;20030;-68
2023/06/12 08:59:20;;;;;;;8.02;7.43;;;;;;;27.80;37.36;100635.09;6051999;23;20174;-68
2023/06/12 09:01:52;;;;;;;7.97;7.35;;;;;;;27.79;37.64;100665.81;6028754;23;20696;-67
2023/06/12 09:04:56;;;;;;;9.18;7.82;;;;;;;27.78;36.86;100599.41;6053206;23;20938;-68
2023/06/12 09:07:25;;;;;;;8.07;7.30;;;;;;;28.11;36.99;100659.03;6027062;23;20025;-68
2023/06/12 09:09:51;;;;;;;8.10;7.40;;;;;;;27.96;36.61;100615.94;6029751;23;20628;-67
2023/06/12 09:12:18;;;;;;;7.40;6.90;;;;;;;27.75;36.78;100580.94;6003342;23;20022;-68
2023/06/12 09:14:45;;;;;;;6.82;6.38;;;;;;;27.60;36.80;100571.06;6032045;23;20519;-68
2023/06/12 09:17:12;;;;;;;8.48;7.78;;;;;;;27.41;37.86;100604.91;6042342;23;20101;-68
2023/06/12 09:19:41;;;;;;;7.55;6.95;;;;;;;27.39;37.70;100609.66;6054647;23;20030;-68
2023/06/12 09:22:08;;;;;;;7.90;7.20;;;;;;;27.46;37.90;100628.56;6027167;23;20673;-67
2023/06/12 09:24:35;;;;;;;7.63;6.97;;;;;;;27.82;37.38;100665.41;6058702;23;20037;-68
2023/06/12 09:27:03;;;;;;;7.70;7.20;;;;;;;27.89;37.27;100660.13;6027503;23;20018;-68
2023/06/12 09:29:34;;;;;;;7.68;7.07;;;;;;;27.77;37.91;100659.78;6028648;23;20044;-68
2023/06/12 09:32:04;;;;;;;7.50;7.00;;;;;;;27.92;37.05;100632.75;6056016;23;20449;-68
2023/06/12 09:34:34;;;;;;;7.68;7.07;;;;;;;28.22;37.30;100688.16;6030057;23;20025;-68
2023/06/12 09:37:03;;;;;;;7.75;7.25;;;;;;;28.36;36.29;100672.06;6029529;23;20033;-67
2023/06/12 09:39:30;;;;;;;7.50;6.90;;;;;;;28.42;35.30;100596.53;6029293;23;20034;-68
2023/06/12 09:41:57;;;;;;;7.55;7.00;;;;;;;28.34;36.22;100637.16;6037024;23;20035;-68
2023/06/12 09:44:26;;;;;;;8.07;7.47;;;;;;;28.48;36.28;100651.59;6055558;23;20765;-68
2023/06/12 09:46:52;;;;;;;7.35;6.85;;;;;;;28.61;36.37;100667.91;6028669;23;20049;-68
2023/06/12 09:49:22;;;;;;;7.65;7.15;;;;;;;28.87;35.51;100657.41;6053538;23;20037;-68
2023/06/12 09:51:51;;;;;;;7.70;7.10;;;;;;;28.56;35.11;100583.13;6028043;23;20034;-68
2023/06/12 09:54:21;;;;;;;7.80;7.30;;;;;;;28.76;35.06;100577.81;6057235;23;20042;-68
2023/06/12 09:56:51;;;;;;;7.68;7.07;;;;;;;28.95;34.48;100597.81;6027088;23;20041;-68
2023/06/12 09:59:19;;;;;;;7.13;6.63;;;;;;;28.71;34.48;100540.59;6056869;23;20099;-68
2023/06/12 10:01:48;;;;;;;7.50;6.90;;;;;;;28.83;33.41;100548.94;6026359;23;20011;-68
2023/06/12 10:04:30;;;;;;;8.20;7.70;;;;;;;28.90;34.71;100625.44;6049928;23;20030;-68
2023/06/12 10:07:01;;;;;;;;;;;;;;;29.22;33.39;100606.84;6028952;23;20035;-70
2023/06/12 10:09:29;;;;;;;7.40;6.90;;;;;;;29.15;32.73;100554.66;6029952;23;19914;-69
2023/06/12 10:11:58;;;;;;;7.70;6.90;;;;;;;28.96;33.00;100519.25;6025695;23;20021;-67
2023/06/12 10:14:26;;;;;;;7.60;7.07;;;;;;;29.31;32.99;100567.78;6028222;23;20026;-68
2023/06/12 10:16:59;;;;;;;7.80;7.20;;;;;;;29.63;32.51;100593.16;6031356;23;20057;-70
2023/06/12 10:19:25;;;;;;;7.30;6.78;;;;;;;29.79;32.99;100624.41;6058025;23;20671;-70
2023/06/12 10:21:55;;;;;;;6.93;6.53;;;;;;;29.57;32.49;100583.19;6030330;23;20023;-68
2023/06/12 10:24:23;;;;;;;8.07;7.38;;;;;;;29.62;32.51;100542.78;6028999;23;20026;-69
2023/06/12 10:26:52;;;;;;;7.35;6.85;;;;;;;29.69;32.86;100586.09;6028641;23;20113;-70
2023/06/12 10:29:30;;;;;;;7.47;6.97;;;;;;;29.74;33.19;100620.66;6024820;23;20039;-70
2023/06/12 10:32:07;;;;;;;7.65;7.05;;;;;;;29.37;32.82;100539.91;6054837;23;20022;-69
2023/06/12 10:34:35;;;;;;;7.03;6.53;;;;;;;29.51;32.29;100524.53;6028771;23;20023;-68
2023/06/12 10:37:21;;;;;;;7.10;6.60;;;;;;;29.30;31.94;100478.78;6057531;23;20779;-68
2023/06/12 10:39:59;;;;;;;7.05;6.55;;;;;;;29.31;32.48;100534.47;6027505;23;20033;-68
2023/06/12 10:42:58;;;;;;;7.88;7.28;;;;;;;29.83;31.91;100585.06;6055689;23;20441;-68
2023/06/12 10:45:28;;;;;;;7.70;7.10;;;;;;;29.70;31.83;100519.28;6003866;23;20037;-68
2023/06/12 10:48:04;;;;;;;7.72;7.13;;;;;;;29.39;32.36;100485.63;6025334;23;20081;-68
2023/06/12 10:50:35;;;;;;;7.57;7.07;;;;;;;29.21;32.66;100478.97;6054971;23;20098;-68
2023/06/12 10:53:07;;;;;;;7.47;6.88;;;;;;;29.94;31.45;100540.28;6003245;23;20023;-68
2023/06/12 10:55:35;;;;;;;7.38;6.88;;;;;;;30.02;32.86;100585.22;6053204;23;20037;-68
2023/06/12 10:58:04;;;;;;;8.02;7.43;;;;;;;29.91;31.54;100523.63;6031491;23;20030;-68
2023/06/12 11:00:36;;;;;;;7.10;6.60;;;;;;;30.02;31.48;100485.94;6056213;23;20090;-68
2023/06/12 11:03:11;;;;;;;7.60;7.00;;;;;;;30.43;31.48;100543.50;6035446;23;20031;-68
2023/06/12 11:05:45;;;;;;;7.40;6.80;;;;;;;30.39;30.75;100507.91;6028949;23;20035;-68
2023/06/12 11:08:12;;;;;;;7.95;7.18;;;;;;;29.73;31.44;100433.19;6023417;23;20031;-68
2023/06/12 11:10:38;;;;;;;7.40;6.90;;;;;;;29.63;31.08;100465.22;6057163;23;20026;-67
2023/06/12 11:13:05;;;;;;;7.10;6.60;;;;;;;29.99;31.79;100550.50;6030542;23;20089;-68
2023/06/12 11:15:40;;;;;;;7.50;7.00;;;;;;;30.18;29.86;100462.97;6029042;23;20027;-68
2023/06/12 11:18:09;;;;;;;7.65;7.03;;;;;;;29.11;30.02;100316.44;6052019;23;20025;-68
2023/06/12 11:20:35;;;;;;;7.53;6.82;;;;;;;29.92;30.48;100477.44;6028453;23;20023;-68
2023/06/12 11:23:05;;;;;;;7.68;7.07;;;;;;;30.00;30.78;100495.31;6051327;23;20018;-68
2023/06/12 11:25:33;;;;;;;7.70;7.20;;;;;;;30.19;30.38;100532.31;6026045;23;20125;-68
2023/06/12 11:28:00;;;;;;;8.15;7.45;;;;;;;30.03;29.93;100454.31;6022083;23;20022;-67
2023/06/12 11:30:27;;;;;;;7.38;6.88;;;;;;;29.84;29.89;100442.50;6054034;23;20023;-68
2023/06/12 11:33:16;;;;;;;7.55;7.05;;;;;;;30.50;31.34;100600.34;6021645;23;20019;-70